»·PEaware :: N101JP KSNA-KSAN

N101JP :: KSNA-KSAN

FLIGHT INFORMATION

Flight Status: Arrived
Operator: Privately registered:
United States
More flights under this callsign
Pilot: James T. (870)
Aircraft: PILATUS PC-12 EAGLE
(PC12)
More flights by this aircraft type
Origin: KSNA John Wayne-Orange Co
United States
Destination: KSAN San Diego Intl-Lindbergh
United States
More flights between these airports :: More routes between these airports
Route: +V25 PACIF V208 LAX118 CARDI MZB320 MZB
File this flight plan on PilotEdge
Remarks:
Altitude:
(Current/Filed)
90ft
Speed:
(Current/Filed)
200kts
Departed: 04-Jun-15 09:26 AM
Arrived: 04-Jun-15 10:07 AM
Distance/Time
Traveled:
66nm/0:41
Distance/Time
To Go:
Arrived

Flight Plot

Page will automatically refresh every two minutes.


Map Options




Map Legend


Flown Route
Filed Route
Departure Airport
Arrival Airport
Navaid (VOR, NDB)
Fix

Horizontal Profiles

Position Reports

Time Latitude Longitude Heading Altitude Ground
Speed
04-Jun-15 09:03 33.682404 -117.860331 118 61ft 0kts
04-Jun-15 09:04 33.682404 -117.860331 118 61ft 0kts
04-Jun-15 09:05 33.682404 -117.860331 118 61ft 0kts
04-Jun-15 09:06 33.682404 -117.860331 118 61ft 0kts
04-Jun-15 09:07 33.682404 -117.860331 118 61ft 0kts
04-Jun-15 09:08 33.682404 -117.860331 118 61ft 0kts
04-Jun-15 09:09 33.682404 -117.860331 118 61ft 0kts
04-Jun-15 09:10 33.682404 -117.860331 118 61ft 0kts
04-Jun-15 09:11 33.682404 -117.860331 118 61ft 0kts
04-Jun-15 09:12 33.682404 -117.860331 118 61ft 0kts
04-Jun-15 09:13 33.682404 -117.860331 118 61ft 0kts
04-Jun-15 09:14 33.682404 -117.860331 118 61ft 0kts
04-Jun-15 09:15 33.682404 -117.860331 118 61ft 0kts
04-Jun-15 09:16 33.682393 -117.860303 110 61ft 1kts
04-Jun-15 09:17 33.682272 -117.861136 233 62ft 7kts
04-Jun-15 09:18 33.680198 -117.862661 206 62ft 9kts
04-Jun-15 09:19 33.679986 -117.863622 299 62ft 0kts
04-Jun-15 09:20 33.679986 -117.863622 299 62ft 0kts
04-Jun-15 09:21 33.680063 -117.863811 288 62ft 7kts
04-Jun-15 09:22 33.661067 -117.874044 187 583ft 148kts
04-Jun-15 09:23 33.618433 -117.880052 187 2311ft 159kts
04-Jun-15 09:24 33.574861 -117.886040 187 4099ft 160kts
04-Jun-15 09:25 33.530887 -117.892498 187 5886ft 160kts
04-Jun-15 09:26 33.487117 -117.899008 187 7595ft 158kts
04-Jun-15 09:27 33.444073 -117.901792 149 8998ft 170kts
04-Jun-15 09:28 33.402829 -117.857688 139 9020ft 207kts
04-Jun-15 09:29 33.358616 -117.814707 144 9020ft 203kts
04-Jun-15 09:30 33.313820 -117.773533 144 9022ft 204kts
04-Jun-15 09:31 33.282480 -117.720121 104 8961ft 212kts
04-Jun-15 09:32 33.254777 -117.663233 144 8966ft 205kts
04-Jun-15 09:33 33.209632 -117.621404 144 8959ft 205kts
04-Jun-15 09:34 33.164590 -117.579468 144 8960ft 206kts
04-Jun-15 09:35 33.119543 -117.537551 144 8960ft 205kts
04-Jun-15 09:36 33.074630 -117.495829 145 8954ft 206kts
04-Jun-15 09:37 33.029622 -117.454073 145 8960ft 206kts
04-Jun-15 09:38 33.005662 -117.390469 103 8081ft 240kts
04-Jun-15 09:39 32.993887 -117.312690 103 6968ft 236kts
04-Jun-15 09:40 32.983363 -117.241765 103 6958ft 209kts
04-Jun-15 09:41 32.973543 -117.175124 103 6965ft 202kts
04-Jun-15 09:42 32.963936 -117.110795 102 6996ft 199kts
04-Jun-15 09:43 32.952941 -117.046649 102 7001ft 200kts
04-Jun-15 09:44 32.940246 -116.982392 102 7003ft 199kts
04-Jun-15 09:45 32.918131 -116.922462 124 6330ft 208kts
04-Jun-15 09:46 32.887073 -116.869393 125 5982ft 176kts
04-Jun-15 09:47 32.861432 -116.825680 125 6009ft 155kts
04-Jun-15 09:48 32.835073 -116.780880 126 6015ft 175kts
04-Jun-15 09:49 32.806400 -116.732166 127 6009ft 180kts
04-Jun-15 09:50 32.775937 -116.687932 167 5965ft 170kts
04-Jun-15 09:51 32.750446 -116.730574 244 5305ft 174kts
04-Jun-15 09:52 32.730143 -116.779321 241 5270ft 157kts
04-Jun-15 09:53 32.710686 -116.824865 245 5027ft 162kts
04-Jun-15 09:54 32.691465 -116.871842 245 5021ft 146kts
04-Jun-15 09:55 32.677461 -116.916170 252 4178ft 150kts
04-Jun-15 09:56 32.678007 -116.961077 286 3557ft 127kts
04-Jun-15 09:57 32.687929 -117.002283 286 2803ft 141kts
04-Jun-15 09:58 32.697967 -117.043462 284 2334ft 128kts
04-Jun-15 09:59 32.707971 -117.084318 282 1908ft 122kts
04-Jun-15 10:00 32.716932 -117.121086 280 1209ft 113kts
04-Jun-15 10:01 32.725223 -117.155264 280 558ft 103kts
04-Jun-15 10:02 32.732526 -117.185371 282 23ft 80kts
04-Jun-15 10:03 32.734742 -117.189326 96 23ft 10kts
04-Jun-15 10:04 32.734789 -117.187173 102 23ft 0kts
04-Jun-15 10:05 32.734789 -117.187173 102 23ft 0kts

Navigation Log

Ident Type
Flight plan parsing failed, navigation log unavailable